sensor_id;sensor_type;location;lat;lon;timestamp;pressure;altitude;pressure_sealevel;temperature
68342;BMP280;55668;52.310;21.066;2022-09-01T00:08:54;101300.0;;;13.2
68342;BMP280;55668;52.310;21.066;2022-09-01T00:23:52;101300.0;;;12.9
68342;BMP280;55668;52.310;21.066;2022-09-01T00:39:18;101300.0;;;12.5
68342;BMP280;55668;52.310;21.066;2022-09-01T00:54:36;101300.0;;;12.4
68342;BMP280;55668;52.310;21.066;2022-09-01T01:09:37;101290.0;;;12.2
68342;BMP280;55668;52.310;21.066;2022-09-01T01:25:38;101300.0;;;12.1
68342;BMP280;55668;52.310;21.066;2022-09-01T01:41:02;101300.0;;;11.8
68342;BMP280;55668;52.310;21.066;2022-09-01T01:56:18;101290.0;;;11.5
68342;BMP280;55668;52.310;21.066;2022-09-01T02:12:59;101290.0;;;11.3
68342;BMP280;55668;52.310;21.066;2022-09-01T02:41:40;101290.0;;;11.1
68342;BMP280;55668;52.310;21.066;2022-09-01T02:57:08;101300.0;;;10.9
68342;BMP280;55668;52.310;21.066;2022-09-01T03:13:41;101290.0;;;10.8
68342;BMP280;55668;52.310;21.066;2022-09-01T03:27:43;101300.0;;;10.6
68342;BMP280;55668;52.310;21.066;2022-09-01T03:45:11;101300.0;;;10.4
68342;BMP280;55668;52.310;21.066;2022-09-01T03:58:58;101300.0;;;10.3
68342;BMP280;55668;52.310;21.066;2022-09-01T04:29:18;101290.0;;;10.4
68342;BMP280;55668;52.310;21.066;2022-09-01T04:44:37;101300.0;;;10.8
68342;BMP280;55668;52.310;21.066;2022-09-01T05:01:19;101310.0;;;11.1
68342;BMP280;55668;52.310;21.066;2022-09-01T05:15:12;101300.0;;;11.5
68342;BMP280;55668;52.310;21.066;2022-09-01T05:31:32;101310.0;;;12.1
68342;BMP280;55668;52.310;21.066;2022-09-01T05:49:13;101300.0;;;14.2
68342;BMP280;55668;52.310;21.066;2022-09-01T06:01:14;101300.0;;;15.4
68342;BMP280;55668;52.310;21.066;2022-09-01T06:17:00;101300.0;;;16.4
68342;BMP280;55668;52.310;21.066;2022-09-01T06:31:58;101300.0;;;17.0
68342;BMP280;55668;52.310;21.066;2022-09-01T06:47:20;101310.0;;;18.8
68342;BMP280;55668;52.310;21.066;2022-09-01T07:00:35;101310.0;;;21.9
68342;BMP280;55668;52.310;21.066;2022-09-01T07:10:26;101310.0;;;24.9
68342;BMP280;55668;52.310;21.066;2022-09-01T07:22:05;101310.0;;;23.9
68342;BMP280;55668;52.310;21.066;2022-09-01T07:33:20;101310.0;;;21.0
68342;BMP280;55668;52.310;21.066;2022-09-01T07:48:45;101310.0;;;20.0
68342;BMP280;55668;52.310;21.066;2022-09-01T08:03:59;101310.0;;;20.5
68342;BMP280;55668;52.310;21.066;2022-09-01T08:22:54;101300.0;;;20.8
68342;BMP280;55668;52.310;21.066;2022-09-01T08:41:42;101310.0;;;20.3
68342;BMP280;55668;52.310;21.066;2022-09-01T08:50:23;101300.0;;;19.8
68342;BMP280;55668;52.310;21.066;2022-09-01T09:06:01;101300.0;;;20.1
68342;BMP280;55668;52.310;21.066;2022-09-01T09:23:15;101280.0;;;20.6
68342;BMP280;55668;52.310;21.066;2022-09-01T09:52:14;101280.0;;;20.9
68342;BMP280;55668;52.310;21.066;2022-09-01T10:23:29;101270.0;;;20.9
68342;BMP280;55668;52.310;21.066;2022-09-01T10:38:14;101270.0;;;20.8
68342;BMP280;55668;52.310;21.066;2022-09-01T10:55:17;101260.0;;;20.9
68342;BMP280;55668;52.310;21.066;2022-09-01T11:09:28;101250.0;;;21.3
68342;BMP280;55668;52.310;21.066;2022-09-01T11:39:26;101260.0;;;20.5
68342;BMP280;55668;52.310;21.066;2022-09-01T11:55:28;101260.0;;;21.2
68342;BMP280;55668;52.310;21.066;2022-09-01T12:25:17;101250.0;;;20.6
68342;BMP280;55668;52.310;21.066;2022-09-01T12:40:45;101240.0;;;20.4
68342;BMP280;55668;52.310;21.066;2022-09-01T13:11:25;101220.0;;;21.0
68342;BMP280;55668;52.310;21.066;2022-09-01T13:26:58;101230.0;;;20.8
68342;BMP280;55668;52.310;21.066;2022-09-01T13:47:18;101230.0;;;19.9
68342;BMP280;55668;52.310;21.066;2022-09-01T14:13:14;101220.0;;;21.6
68342;BMP280;55668;52.310;21.066;2022-09-01T14:29:26;101220.0;;;21.2
68342;BMP280;55668;52.310;21.066;2022-09-01T14:44:06;101220.0;;;20.6
68342;BMP280;55668;52.310;21.066;2022-09-01T15:00:51;101220.0;;;20.4
68342;BMP280;55668;52.310;21.066;2022-09-01T15:15:02;101230.0;;;20.0
68342;BMP280;55668;52.310;21.066;2022-09-01T15:29:57;101230.0;;;20.2
68342;BMP280;55668;52.310;21.066;2022-09-01T15:45:18;101220.0;;;20.0
68342;BMP280;55668;52.310;21.066;2022-09-01T16:00:20;101210.0;;;19.9
68342;BMP280;55668;52.310;21.066;2022-09-01T16:15:37;101210.0;;;19.6
68342;BMP280;55668;52.310;21.066;2022-09-01T16:30:58;101210.0;;;19.3
68342;BMP280;55668;52.310;21.066;2022-09-01T16:47:11;101220.0;;;18.9
68342;BMP280;55668;52.310;21.066;2022-09-01T17:02:15;101220.0;;;18.5
68342;BMP280;55668;52.310;21.066;2022-09-01T17:17:37;101240.0;;;18.1
68342;BMP280;55668;52.310;21.066;2022-09-01T17:32:34;101240.0;;;17.6
68342;BMP280;55668;52.310;21.066;2022-09-01T17:48:58;101270.0;;;17.1
68342;BMP280;55668;52.310;21.066;2022-09-01T18:03:46;101290.0;;;16.6
68342;BMP280;55668;52.310;21.066;2022-09-01T18:18:31;101300.0;;;16.2
68342;BMP280;55668;52.310;21.066;2022-09-01T18:35:50;101330.0;;;16.0
68342;BMP280;55668;52.310;21.066;2022-09-01T18:51:39;101340.0;;;15.8
68342;BMP280;55668;52.310;21.066;2022-09-01T19:07:17;101350.0;;;15.4
68342;BMP280;55668;52.310;21.066;2022-09-01T19:20:51;101360.0;;;15.0
68342;BMP280;55668;52.310;21.066;2022-09-01T19:35:40;101370.0;;;14.6
68342;BMP280;55668;52.310;21.066;2022-09-01T19:52:35;101370.0;;;14.3
68342;BMP280;55668;52.310;21.066;2022-09-01T20:06:11;101380.0;;;13.9
68342;BMP280;55668;52.310;21.066;2022-09-01T20:22:24;101390.0;;;13.5
68342;BMP280;55668;52.310;21.066;2022-09-01T20:37:09;101410.0;;;13.1
68342;BMP280;55668;52.310;21.066;2022-09-01T20:53:09;101420.0;;;12.8
68342;BMP280;55668;52.310;21.066;2022-09-01T21:07:39;101430.0;;;12.5
68342;BMP280;55668;52.310;21.066;2022-09-01T21:24:20;101440.0;;;12.2
68342;BMP280;55668;52.310;21.066;2022-09-01T22:09:46;101460.0;;;11.9
68342;BMP280;55668;52.310;21.066;2022-09-01T22:25:30;101460.0;;;11.6
68342;BMP280;55668;52.310;21.066;2022-09-01T22:39:54;101460.0;;;11.3
68342;BMP280;55668;52.310;21.066;2022-09-01T22:55:36;101470.0;;;11.0
68342;BMP280;55668;52.310;21.066;2022-09-01T23:10:35;101470.0;;;10.8
68342;BMP280;55668;52.310;21.066;2022-09-01T23:27:14;101470.0;;;10.6
68342;BMP280;55668;52.310;21.066;2022-09-01T23:41:13;101470.0;;;10.4
68342;BMP280;55668;52.310;21.066;2022-09-01T23:57:36;101480.0;;;10.2
